sensor_id;sensor_type;location;lat;lon;timestamp;P1;durP1;ratioP1;P2;durP2;ratioP2
18364;SDS011;9309;52.126;11.616;2023-06-26T00:01:03;4.37;;;3.93;;
18364;SDS011;9309;52.126;11.616;2023-06-26T00:03:31;6.45;;;4.45;;
18364;SDS011;9309;52.126;11.616;2023-06-26T00:05:58;4.60;;;4.00;;
18364;SDS011;9309;52.126;11.616;2023-06-26T00:08:26;4.57;;;3.90;;
18364;SDS011;9309;52.126;11.616;2023-06-26T00:10:53;6.15;;;4.93;;
18364;SDS011;9309;52.126;11.616;2023-06-26T00:13:19;5.07;;;4.07;;
18364;SDS011;9309;52.126;11.616;2023-06-26T00:15:46;4.80;;;3.80;;
18364;SDS011;9309;52.126;11.616;2023-06-26T00:18:13;3.97;;;3.67;;
18364;SDS011;9309;52.126;11.616;2023-06-26T00:20:41;7.63;;;4.30;;
18364;SDS011;9309;52.126;11.616;2023-06-26T00:23:07;5.60;;;3.90;;
18364;SDS011;9309;52.126;11.616;2023-06-26T00:25:34;5.17;;;4.07;;
18364;SDS011;9309;52.126;11.616;2023-06-26T00:28:01;4.50;;;4.07;;
18364;SDS011;9309;52.126;11.616;2023-06-26T00:30:28;4.67;;;4.27;;
18364;SDS011;9309;52.126;11.616;2023-06-26T00:32:56;4.25;;;3.88;;
18364;SDS011;9309;52.126;11.616;2023-06-26T00:35:23;5.83;;;4.37;;
18364;SDS011;9309;52.126;11.616;2023-06-26T00:37:51;5.90;;;3.77;;
18364;SDS011;9309;52.126;11.616;2023-06-26T00:40:17;4.53;;;4.13;;
18364;SDS011;9309;52.126;11.616;2023-06-26T00:42:44;4.60;;;4.20;;
18364;SDS011;9309;52.126;11.616;2023-06-26T00:45:13;6.23;;;4.17;;
18364;SDS011;9309;52.126;11.616;2023-06-26T00:47:39;4.67;;;3.60;;
18364;SDS011;9309;52.126;11.616;2023-06-26T00:50:07;5.97;;;4.57;;
18364;SDS011;9309;52.126;11.616;2023-06-26T00:52:34;4.73;;;3.90;;
18364;SDS011;9309;52.126;11.616;2023-06-26T00:55:03;4.87;;;3.80;;
18364;SDS011;9309;52.126;11.616;2023-06-26T00:57:30;5.03;;;4.30;;
18364;SDS011;9309;52.126;11.616;2023-06-26T00:59:58;4.97;;;4.27;;
18364;SDS011;9309;52.126;11.616;2023-06-26T01:02:29;5.77;;;4.43;;
18364;SDS011;9309;52.126;11.616;2023-06-26T01:04:59;4.80;;;4.40;;
18364;SDS011;9309;52.126;11.616;2023-06-26T01:07:28;6.23;;;4.40;;
18364;SDS011;9309;52.126;11.616;2023-06-26T01:09:57;4.77;;;4.13;;
18364;SDS011;9309;52.126;11.616;2023-06-26T01:12:26;4.83;;;4.30;;
18364;SDS011;9309;52.126;11.616;2023-06-26T01:14:52;6.53;;;4.70;;
18364;SDS011;9309;52.126;11.616;2023-06-26T01:17:19;6.80;;;5.00;;
18364;SDS011;9309;52.126;11.616;2023-06-26T01:19:48;4.67;;;4.13;;
18364;SDS011;9309;52.126;11.616;2023-06-26T01:22:18;6.23;;;4.57;;
18364;SDS011;9309;52.126;11.616;2023-06-26T01:24:54;11.47;;;4.93;;
18364;SDS011;9309;52.126;11.616;2023-06-26T01:27:29;6.27;;;4.70;;
18364;SDS011;9309;52.126;11.616;2023-06-26T01:29:58;7.10;;;4.17;;
18364;SDS011;9309;52.126;11.616;2023-06-26T01:32:28;5.23;;;4.70;;
18364;SDS011;9309;52.126;11.616;2023-06-26T01:34:55;8.10;;;4.73;;
18364;SDS011;9309;52.126;11.616;2023-06-26T01:37:26;5.40;;;4.60;;
18364;SDS011;9309;52.126;11.616;2023-06-26T01:39:53;6.27;;;4.77;;
18364;SDS011;9309;52.126;11.616;2023-06-26T01:42:20;6.93;;;5.13;;
18364;SDS011;9309;52.126;11.616;2023-06-26T01:44:48;6.87;;;4.67;;
18364;SDS011;9309;52.126;11.616;2023-06-26T01:47:19;7.27;;;5.03;;
18364;SDS011;9309;52.126;11.616;2023-06-26T01:49:52;5.47;;;4.40;;
18364;SDS011;9309;52.126;11.616;2023-06-26T01:52:25;5.07;;;4.47;;
18364;SDS011;9309;52.126;11.616;2023-06-26T01:54:58;6.83;;;4.97;;
18364;SDS011;9309;52.126;11.616;2023-06-26T01:57:29;5.80;;;4.53;;
18364;SDS011;9309;52.126;11.616;2023-06-26T01:59:59;6.50;;;4.90;;
18364;SDS011;9309;52.126;11.616;2023-06-26T02:02:39;6.07;;;5.00;;
18364;SDS011;9309;52.126;11.616;2023-06-26T02:05:07;7.10;;;5.17;;
18364;SDS011;9309;52.126;11.616;2023-06-26T02:07:34;4.67;;;4.27;;
18364;SDS011;9309;52.126;11.616;2023-06-26T02:10:02;5.17;;;4.60;;
18364;SDS011;9309;52.126;11.616;2023-06-26T02:12:28;7.33;;;5.20;;
18364;SDS011;9309;52.126;11.616;2023-06-26T02:14:55;5.27;;;4.77;;
18364;SDS011;9309;52.126;11.616;2023-06-26T02:17:24;7.87;;;5.47;;
18364;SDS011;9309;52.126;11.616;2023-06-26T02:19:54;6.80;;;5.30;;
18364;SDS011;9309;52.126;11.616;2023-06-26T02:22:20;6.90;;;4.83;;
18364;SDS011;9309;52.126;11.616;2023-06-26T02:24:47;6.30;;;4.90;;
18364;SDS011;9309;52.126;11.616;2023-06-26T02:27:14;6.73;;;4.97;;
18364;SDS011;9309;52.126;11.616;2023-06-26T02:29:40;5.30;;;4.77;;
18364;SDS011;9309;52.126;11.616;2023-06-26T02:32:07;6.10;;;5.00;;
18364;SDS011;9309;52.126;11.616;2023-06-26T02:34:36;6.13;;;5.40;;
18364;SDS011;9309;52.126;11.616;2023-06-26T02:37:02;7.00;;;5.37;;
18364;SDS011;9309;52.126;11.616;2023-06-26T02:39:31;7.43;;;4.90;;
18364;SDS011;9309;52.126;11.616;2023-06-26T02:41:58;9.53;;;5.70;;
18364;SDS011;9309;52.126;11.616;2023-06-26T02:44:25;5.83;;;5.17;;
18364;SDS011;9309;52.126;11.616;2023-06-26T02:46:52;6.13;;;5.37;;
18364;SDS011;9309;52.126;11.616;2023-06-26T02:49:19;7.63;;;5.47;;
18364;SDS011;9309;52.126;11.616;2023-06-26T02:51:47;8.93;;;6.17;;
18364;SDS011;9309;52.126;11.616;2023-06-26T02:54:23;10.97;;;6.20;;
18364;SDS011;9309;52.126;11.616;2023-06-26T02:56:53;10.27;;;6.77;;
18364;SDS011;9309;52.126;11.616;2023-06-26T02:59:24;11.80;;;7.83;;
18364;SDS011;9309;52.126;11.616;2023-06-26T03:01:52;9.17;;;7.40;;
18364;SDS011;9309;52.126;11.616;2023-06-26T03:04:24;11.07;;;7.53;;
18364;SDS011;9309;52.126;11.616;2023-06-26T03:06:52;7.67;;;6.03;;
18364;SDS011;9309;52.126;11.616;2023-06-26T03:09:19;8.50;;;6.50;;
18364;SDS011;9309;52.126;11.616;2023-06-26T03:11:45;8.50;;;6.50;;
18364;SDS011;9309;52.126;11.616;2023-06-26T03:14:12;7.77;;;6.43;;
18364;SDS011;9309;52.126;11.616;2023-06-26T03:16:39;8.17;;;6.07;;
18364;SDS011;9309;52.126;11.616;2023-06-26T03:19:06;7.40;;;5.13;;
18364;SDS011;9309;52.126;11.616;2023-06-26T03:21:52;9.83;;;5.63;;
18364;SDS011;9309;52.126;11.616;2023-06-26T03:24:20;8.87;;;5.90;;
18364;SDS011;9309;52.126;11.616;2023-06-26T03:26:46;9.20;;;6.53;;
18364;SDS011;9309;52.126;11.616;2023-06-26T03:29:13;9.40;;;5.77;;
18364;SDS011;9309;52.126;11.616;2023-06-26T03:31:40;7.10;;;5.67;;
18364;SDS011;9309;52.126;11.616;2023-06-26T03:34:07;9.00;;;5.83;;
18364;SDS011;9309;52.126;11.616;2023-06-26T03:36:34;7.47;;;5.53;;
18364;SDS011;9309;52.126;11.616;2023-06-26T03:39:03;9.27;;;6.10;;
18364;SDS011;9309;52.126;11.616;2023-06-26T03:41:30;7.23;;;5.83;;
18364;SDS011;9309;52.126;11.616;2023-06-26T03:43:57;6.53;;;5.37;;
18364;SDS011;9309;52.126;11.616;2023-06-26T03:46:30;5.47;;;4.97;;
18364;SDS011;9309;52.126;11.616;2023-06-26T03:48:56;6.70;;;5.10;;
18364;SDS011;9309;52.126;11.616;2023-06-26T03:51:23;7.07;;;5.57;;
18364;SDS011;9309;52.126;11.616;2023-06-26T03:53:50;7.53;;;5.37;;
18364;SDS011;9309;52.126;11.616;2023-06-26T03:56:18;9.13;;;5.80;;
18364;SDS011;9309;52.126;11.616;2023-06-26T03:58:45;8.07;;;5.47;;
18364;SDS011;9309;52.126;11.616;2023-06-26T04:01:12;14.73;;;6.63;;
18364;SDS011;9309;52.126;11.616;2023-06-26T04:03:38;8.63;;;5.80;;
18364;SDS011;9309;52.126;11.616;2023-06-26T04:06:06;6.83;;;5.50;;
18364;SDS011;9309;52.126;11.616;2023-06-26T04:08:33;10.87;;;6.37;;
18364;SDS011;9309;52.126;11.616;2023-06-26T04:10:59;7.27;;;5.70;;
18364;SDS011;9309;52.126;11.616;2023-06-26T04:13:27;6.50;;;5.20;;
18364;SDS011;9309;52.126;11.616;2023-06-26T04:15:54;7.83;;;5.03;;
18364;SDS011;9309;52.126;11.616;2023-06-26T04:18:21;7.00;;;5.17;;
18364;SDS011;9309;52.126;11.616;2023-06-26T04:21:04;8.30;;;5.93;;
18364;SDS011;9309;52.126;11.616;2023-06-26T04:23:32;6.30;;;5.17;;
18364;SDS011;9309;52.126;11.616;2023-06-26T04:25:59;6.73;;;4.97;;
18364;SDS011;9309;52.126;11.616;2023-06-26T04:28:25;13.13;;;5.73;;
18364;SDS011;9309;52.126;11.616;2023-06-26T04:30:53;7.20;;;5.40;;
18364;SDS011;9309;52.126;11.616;2023-06-26T04:33:20;6.77;;;4.67;;
18364;SDS011;9309;52.126;11.616;2023-06-26T04:35:48;6.70;;;4.63;;
18364;SDS011;9309;52.126;11.616;2023-06-26T04:38:15;23.33;;;5.37;;
18364;SDS011;9309;52.126;11.616;2023-06-26T04:40:41;5.87;;;4.37;;
18364;SDS011;9309;52.126;11.616;2023-06-26T04:43:08;5.30;;;4.63;;
18364;SDS011;9309;52.126;11.616;2023-06-26T04:45:36;6.63;;;4.67;;
18364;SDS011;9309;52.126;11.616;2023-06-26T04:48:03;5.63;;;5.00;;
18364;SDS011;9309;52.126;11.616;2023-06-26T04:50:32;6.20;;;4.93;;
18364;SDS011;9309;52.126;11.616;2023-06-26T04:53:00;11.03;;;4.77;;
18364;SDS011;9309;52.126;11.616;2023-06-26T04:55:27;5.77;;;4.27;;
18364;SDS011;9309;52.126;11.616;2023-06-26T04:57:54;10.27;;;4.50;;
18364;SDS011;9309;52.126;11.616;2023-06-26T05:00:21;7.43;;;5.00;;
18364;SDS011;9309;52.126;11.616;2023-06-26T05:02:51;6.47;;;4.80;;
18364;SDS011;9309;52.126;11.616;2023-06-26T05:05:25;4.15;;;3.80;;
18364;SDS011;9309;52.126;11.616;2023-06-26T05:07:52;8.95;;;4.35;;
18364;SDS011;9309;52.126;11.616;2023-06-26T05:10:20;4.85;;;4.30;;
18364;SDS011;9309;52.126;11.616;2023-06-26T05:12:47;5.00;;;4.35;;
18364;SDS011;9309;52.126;11.616;2023-06-26T05:15:14;7.80;;;4.57;;
18364;SDS011;9309;52.126;11.616;2023-06-26T05:17:41;7.22;;;4.32;;
18364;SDS011;9309;52.126;11.616;2023-06-26T05:20:21;5.38;;;4.28;;
18364;SDS011;9309;52.126;11.616;2023-06-26T05:23:06;7.53;;;4.50;;
18364;SDS011;9309;52.126;11.616;2023-06-26T05:25:34;4.53;;;4.13;;
18364;SDS011;9309;52.126;11.616;2023-06-26T05:28:02;4.97;;;4.00;;
18364;SDS011;9309;52.126;11.616;2023-06-26T05:30:30;4.82;;;4.15;;
18364;SDS011;9309;52.126;11.616;2023-06-26T05:32:59;4.15;;;3.65;;
18364;SDS011;9309;52.126;11.616;2023-06-26T05:35:29;4.70;;;4.03;;
18364;SDS011;9309;52.126;11.616;2023-06-26T05:37:57;4.82;;;3.67;;
18364;SDS011;9309;52.126;11.616;2023-06-26T05:40:25;4.40;;;4.00;;
18364;SDS011;9309;52.126;11.616;2023-06-26T05:42:52;3.88;;;3.58;;
18364;SDS011;9309;52.126;11.616;2023-06-26T05:45:19;4.47;;;3.95;;
18364;SDS011;9309;52.126;11.616;2023-06-26T05:47:46;7.28;;;4.05;;
18364;SDS011;9309;52.126;11.616;2023-06-26T05:50:17;7.72;;;4.10;;
18364;SDS011;9309;52.126;11.616;2023-06-26T05:52:46;4.70;;;3.78;;
18364;SDS011;9309;52.126;11.616;2023-06-26T05:55:14;7.32;;;4.72;;
18364;SDS011;9309;52.126;11.616;2023-06-26T05:57:42;5.15;;;3.65;;
18364;SDS011;9309;52.126;11.616;2023-06-26T06:00:09;3.55;;;3.25;;
18364;SDS011;9309;52.126;11.616;2023-06-26T06:02:41;4.10;;;3.72;;
18364;SDS011;9309;52.126;11.616;2023-06-26T06:05:09;5.32;;;3.33;;
18364;SDS011;9309;52.126;11.616;2023-06-26T06:07:36;7.57;;;3.08;;
18364;SDS011;9309;52.126;11.616;2023-06-26T06:10:05;5.90;;;3.50;;
18364;SDS011;9309;52.126;11.616;2023-06-26T06:12:32;6.45;;;3.45;;
18364;SDS011;9309;52.126;11.616;2023-06-26T06:14:58;3.70;;;3.40;;
18364;SDS011;9309;52.126;11.616;2023-06-26T06:17:25;4.22;;;3.70;;
18364;SDS011;9309;52.126;11.616;2023-06-26T06:19:53;2.97;;;2.78;;
18364;SDS011;9309;52.126;11.616;2023-06-26T06:22:20;3.83;;;3.15;;
18364;SDS011;9309;52.126;11.616;2023-06-26T06:24:46;5.75;;;3.55;;
18364;SDS011;9309;52.126;11.616;2023-06-26T06:27:15;3.42;;;3.00;;
18364;SDS011;9309;52.126;11.616;2023-06-26T06:29:42;2.88;;;2.67;;
18364;SDS011;9309;52.126;11.616;2023-06-26T06:32:09;3.70;;;2.97;;
18364;SDS011;9309;52.126;11.616;2023-06-26T06:34:36;5.75;;;3.50;;
18364;SDS011;9309;52.126;11.616;2023-06-26T06:37:03;3.65;;;3.33;;
18364;SDS011;9309;52.126;11.616;2023-06-26T06:39:30;3.97;;;3.30;;
18364;SDS011;9309;52.126;11.616;2023-06-26T06:41:56;4.07;;;3.15;;
18364;SDS011;9309;52.126;11.616;2023-06-26T06:44:25;3.05;;;2.83;;
18364;SDS011;9309;52.126;11.616;2023-06-26T06:46:52;3.28;;;2.47;;
18364;SDS011;9309;52.126;11.616;2023-06-26T06:49:18;2.45;;;2.28;;
18364;SDS011;9309;52.126;11.616;2023-06-26T06:51:45;2.80;;;2.60;;
18364;SDS011;9309;52.126;11.616;2023-06-26T06:54:12;5.05;;;3.40;;
18364;SDS011;9309;52.126;11.616;2023-06-26T06:56:39;6.38;;;3.22;;
18364;SDS011;9309;52.126;11.616;2023-06-26T06:59:05;3.90;;;2.95;;
18364;SDS011;9309;52.126;11.616;2023-06-26T07:01:33;4.13;;;2.97;;
18364;SDS011;9309;52.126;11.616;2023-06-26T07:04:00;4.22;;;3.35;;
18364;SDS011;9309;52.126;11.616;2023-06-26T07:06:29;5.40;;;2.65;;
18364;SDS011;9309;52.126;11.616;2023-06-26T07:08:55;2.70;;;2.50;;
18364;SDS011;9309;52.126;11.616;2023-06-26T07:11:22;2.65;;;2.50;;
18364;SDS011;9309;52.126;11.616;2023-06-26T07:13:49;2.70;;;2.50;;
18364;SDS011;9309;52.126;11.616;2023-06-26T07:16:16;2.92;;;2.72;;
18364;SDS011;9309;52.126;11.616;2023-06-26T07:18:44;3.50;;;2.42;;
18364;SDS011;9309;52.126;11.616;2023-06-26T07:21:11;3.08;;;2.78;;
18364;SDS011;9309;52.126;11.616;2023-06-26T07:23:38;2.90;;;2.65;;
18364;SDS011;9309;52.126;11.616;2023-06-26T07:26:05;2.90;;;2.70;;
18364;SDS011;9309;52.126;11.616;2023-06-26T07:28:31;2.88;;;2.78;;
18364;SDS011;9309;52.126;11.616;2023-06-26T07:30:58;3.00;;;2.80;;
18364;SDS011;9309;52.126;11.616;2023-06-26T07:33:25;3.22;;;2.92;;
18364;SDS011;9309;52.126;11.616;2023-06-26T07:35:53;3.20;;;3.00;;
18364;SDS011;9309;52.126;11.616;2023-06-26T07:38:19;3.17;;;2.90;;
18364;SDS011;9309;52.126;11.616;2023-06-26T07:40:46;2.78;;;2.50;;
18364;SDS011;9309;52.126;11.616;2023-06-26T07:43:13;3.90;;;2.80;;
18364;SDS011;9309;52.126;11.616;2023-06-26T07:45:40;4.15;;;3.38;;
18364;SDS011;9309;52.126;11.616;2023-06-26T07:48:07;6.03;;;2.80;;
18364;SDS011;9309;52.126;11.616;2023-06-26T07:50:34;3.03;;;2.83;;
18364;SDS011;9309;52.126;11.616;2023-06-26T07:53:02;2.80;;;2.70;;
18364;SDS011;9309;52.126;11.616;2023-06-26T07:55:30;3.15;;;2.95;;
18364;SDS011;9309;52.126;11.616;2023-06-26T07:57:57;3.35;;;2.80;;
18364;SDS011;9309;52.126;11.616;2023-06-26T08:00:24;3.10;;;2.88;;
18364;SDS011;9309;52.126;11.616;2023-06-26T08:02:51;3.13;;;2.83;;
18364;SDS011;9309;52.126;11.616;2023-06-26T08:05:18;3.05;;;2.85;;
18364;SDS011;9309;52.126;11.616;2023-06-26T08:07:45;3.67;;;3.25;;
18364;SDS011;9309;52.126;11.616;2023-06-26T08:10:13;3.38;;;2.85;;
18364;SDS011;9309;52.126;11.616;2023-06-26T08:12:40;3.60;;;2.58;;
18364;SDS011;9309;52.126;11.616;2023-06-26T08:15:08;4.30;;;3.20;;
18364;SDS011;9309;52.126;11.616;2023-06-26T08:17:34;3.20;;;2.90;;
18364;SDS011;9309;52.126;11.616;2023-06-26T08:20:02;4.47;;;3.33;;
18364;SDS011;9309;52.126;11.616;2023-06-26T08:22:29;3.33;;;3.05;;
18364;SDS011;9309;52.126;11.616;2023-06-26T08:24:56;3.90;;;3.10;;
18364;SDS011;9309;52.126;11.616;2023-06-26T08:27:24;3.28;;;3.08;;
18364;SDS011;9309;52.126;11.616;2023-06-26T08:29:51;4.45;;;3.17;;
18364;SDS011;9309;52.126;11.616;2023-06-26T08:32:17;6.90;;;3.33;;
18364;SDS011;9309;52.126;11.616;2023-06-26T08:34:44;3.42;;;3.13;;
18364;SDS011;9309;52.126;11.616;2023-06-26T08:37:11;3.38;;;3.08;;
18364;SDS011;9309;52.126;11.616;2023-06-26T08:39:38;5.93;;;3.25;;
18364;SDS011;9309;52.126;11.616;2023-06-26T08:42:04;3.20;;;2.92;;
18364;SDS011;9309;52.126;11.616;2023-06-26T08:44:33;2.92;;;2.72;;
18364;SDS011;9309;52.126;11.616;2023-06-26T08:47:00;2.95;;;2.75;;
18364;SDS011;9309;52.126;11.616;2023-06-26T08:49:28;3.30;;;2.67;;
18364;SDS011;9309;52.126;11.616;2023-06-26T08:52:06;2.83;;;2.55;;
18364;SDS011;9309;52.126;11.616;2023-06-26T08:54:42;2.72;;;2.47;;
18364;SDS011;9309;52.126;11.616;2023-06-26T08:57:12;4.68;;;3.05;;
18364;SDS011;9309;52.126;11.616;2023-06-26T08:59:43;4.35;;;2.60;;
18364;SDS011;9309;52.126;11.616;2023-06-26T09:02:10;3.45;;;2.88;;
18364;SDS011;9309;52.126;11.616;2023-06-26T09:04:37;3.40;;;3.10;;
18364;SDS011;9309;52.126;11.616;2023-06-26T09:07:05;2.70;;;2.60;;
18364;SDS011;9309;52.126;11.616;2023-06-26T09:09:32;3.30;;;2.85;;
18364;SDS011;9309;52.126;11.616;2023-06-26T09:11:58;4.68;;;3.20;;
18364;SDS011;9309;52.126;11.616;2023-06-26T09:14:27;3.10;;;2.90;;
18364;SDS011;9309;52.126;11.616;2023-06-26T09:16:56;2.90;;;2.70;;
18364;SDS011;9309;52.126;11.616;2023-06-26T09:19:23;3.17;;;2.85;;
18364;SDS011;9309;52.126;11.616;2023-06-26T09:21:50;2.97;;;2.78;;
18364;SDS011;9309;52.126;11.616;2023-06-26T09:24:17;2.55;;;2.45;;
18364;SDS011;9309;52.126;11.616;2023-06-26T09:26:44;3.80;;;2.95;;
18364;SDS011;9309;52.126;11.616;2023-06-26T09:29:11;3.33;;;3.03;;
18364;SDS011;9309;52.126;11.616;2023-06-26T09:31:39;3.40;;;3.10;;
18364;SDS011;9309;52.126;11.616;2023-06-26T09:34:08;2.53;;;2.33;;
18364;SDS011;9309;52.126;11.616;2023-06-26T09:36:35;3.38;;;3.08;;
18364;SDS011;9309;52.126;11.616;2023-06-26T09:39:02;3.20;;;3.00;;
18364;SDS011;9309;52.126;11.616;2023-06-26T09:41:33;3.13;;;2.80;;
18364;SDS011;9309;52.126;11.616;2023-06-26T09:44:01;3.33;;;3.03;;
18364;SDS011;9309;52.126;11.616;2023-06-26T09:46:29;3.00;;;2.80;;
18364;SDS011;9309;52.126;11.616;2023-06-26T09:49:05;3.40;;;3.05;;
18364;SDS011;9309;52.126;11.616;2023-06-26T09:51:33;3.60;;;3.30;;
18364;SDS011;9309;52.126;11.616;2023-06-26T09:54:01;3.33;;;2.72;;
18364;SDS011;9309;52.126;11.616;2023-06-26T09:56:29;2.97;;;2.78;;
18364;SDS011;9309;52.126;11.616;2023-06-26T09:58:57;2.88;;;2.67;;
18364;SDS011;9309;52.126;11.616;2023-06-26T10:01:27;2.88;;;2.67;;
18364;SDS011;9309;52.126;11.616;2023-06-26T10:03:54;2.58;;;2.42;;
18364;SDS011;9309;52.126;11.616;2023-06-26T10:06:24;3.10;;;2.80;;
18364;SDS011;9309;52.126;11.616;2023-06-26T10:08:54;3.17;;;2.88;;
18364;SDS011;9309;52.126;11.616;2023-06-26T10:11:22;3.08;;;2.88;;
18364;SDS011;9309;52.126;11.616;2023-06-26T10:13:51;2.83;;;2.63;;
18364;SDS011;9309;52.126;11.616;2023-06-26T10:16:22;3.83;;;3.50;;
18364;SDS011;9309;52.126;11.616;2023-06-26T10:18:52;3.47;;;2.88;;
18364;SDS011;9309;52.126;11.616;2023-06-26T10:21:24;4.18;;;3.15;;
18364;SDS011;9309;52.126;11.616;2023-06-26T10:23:52;3.40;;;2.72;;
18364;SDS011;9309;52.126;11.616;2023-06-26T10:26:21;2.72;;;2.63;;
18364;SDS011;9309;52.126;11.616;2023-06-26T10:28:48;5.93;;;2.85;;
18364;SDS011;9309;52.126;11.616;2023-06-26T10:31:18;2.95;;;2.72;;
18364;SDS011;9309;52.126;11.616;2023-06-26T10:33:47;2.90;;;2.70;;
18364;SDS011;9309;52.126;11.616;2023-06-26T10:36:15;3.13;;;2.95;;
18364;SDS011;9309;52.126;11.616;2023-06-26T10:38:51;3.25;;;3.05;;
18364;SDS011;9309;52.126;11.616;2023-06-26T10:41:21;2.90;;;2.70;;
18364;SDS011;9309;52.126;11.616;2023-06-26T10:43:49;2.80;;;2.60;;
18364;SDS011;9309;52.126;11.616;2023-06-26T10:46:17;2.58;;;2.38;;
18364;SDS011;9309;52.126;11.616;2023-06-26T10:48:57;2.97;;;2.72;;
18364;SDS011;9309;52.126;11.616;2023-06-26T10:51:25;2.63;;;2.42;;
18364;SDS011;9309;52.126;11.616;2023-06-26T10:53:55;2.47;;;2.38;;
18364;SDS011;9309;52.126;11.616;2023-06-26T10:56:33;2.40;;;2.30;;
18364;SDS011;9309;52.126;11.616;2023-06-26T10:59:11;3.97;;;2.80;;
18364;SDS011;9309;52.126;11.616;2023-06-26T11:01:39;2.67;;;2.47;;
18364;SDS011;9309;52.126;11.616;2023-06-26T11:04:07;2.50;;;2.38;;
18364;SDS011;9309;52.126;11.616;2023-06-26T11:06:35;2.90;;;2.67;;
18364;SDS011;9309;52.126;11.616;2023-06-26T11:09:09;3.13;;;2.92;;
18364;SDS011;9309;52.126;11.616;2023-06-26T11:11:55;2.55;;;2.42;;
18364;SDS011;9309;52.126;11.616;2023-06-26T11:14:30;2.58;;;2.47;;
18364;SDS011;9309;52.126;11.616;2023-06-26T11:16:57;2.95;;;2.75;;
18364;SDS011;9309;52.126;11.616;2023-06-26T11:19:25;2.63;;;2.50;;
18364;SDS011;9309;52.126;11.616;2023-06-26T11:21:57;3.55;;;2.60;;
18364;SDS011;9309;52.126;11.616;2023-06-26T11:24:32;3.90;;;2.75;;
18364;SDS011;9309;52.126;11.616;2023-06-26T11:26:59;3.05;;;2.83;;
18364;SDS011;9309;52.126;11.616;2023-06-26T11:29:28;2.53;;;2.33;;
18364;SDS011;9309;52.126;11.616;2023-06-26T11:32:00;2.63;;;2.50;;
18364;SDS011;9309;52.126;11.616;2023-06-26T11:34:30;2.78;;;2.58;;
18364;SDS011;9309;52.126;11.616;2023-06-26T11:36:57;2.60;;;2.50;;
18364;SDS011;9309;52.126;11.616;2023-06-26T11:39:26;2.22;;;2.13;;
18364;SDS011;9309;52.126;11.616;2023-06-26T11:41:54;2.35;;;2.25;;
18364;SDS011;9309;52.126;11.616;2023-06-26T11:44:21;2.35;;;2.25;;
18364;SDS011;9309;52.126;11.616;2023-06-26T11:46:47;2.40;;;2.30;;
18364;SDS011;9309;52.126;11.616;2023-06-26T11:49:20;2.80;;;2.58;;
18364;SDS011;9309;52.126;11.616;2023-06-26T11:51:48;2.53;;;2.38;;
18364;SDS011;9309;52.126;11.616;2023-06-26T11:54:15;2.83;;;2.63;;
18364;SDS011;9309;52.126;11.616;2023-06-26T11:56:51;2.60;;;2.50;;
18364;SDS011;9309;52.126;11.616;2023-06-26T11:59:21;2.80;;;2.53;;
18364;SDS011;9309;52.126;11.616;2023-06-26T12:01:49;2.53;;;2.42;;
18364;SDS011;9309;52.126;11.616;2023-06-26T12:04:17;2.80;;;2.67;;
18364;SDS011;9309;52.126;11.616;2023-06-26T12:06:46;2.83;;;2.63;;
18364;SDS011;9309;52.126;11.616;2023-06-26T12:09:14;3.13;;;2.72;;
18364;SDS011;9309;52.126;11.616;2023-06-26T12:11:42;3.08;;;2.85;;
18364;SDS011;9309;52.126;11.616;2023-06-26T12:14:13;3.08;;;2.78;;
18364;SDS011;9309;52.126;11.616;2023-06-26T12:16:41;2.92;;;2.72;;
18364;SDS011;9309;52.126;11.616;2023-06-26T12:19:08;4.20;;;3.70;;
18364;SDS011;9309;52.126;11.616;2023-06-26T12:21:45;3.50;;;3.17;;
18364;SDS011;9309;52.126;11.616;2023-06-26T12:24:18;4.57;;;3.83;;
18364;SDS011;9309;52.126;11.616;2023-06-26T12:26:45;4.07;;;3.78;;
18364;SDS011;9309;52.126;11.616;2023-06-26T12:29:15;5.28;;;3.28;;
18364;SDS011;9309;52.126;11.616;2023-06-26T12:31:45;4.43;;;3.63;;
18364;SDS011;9309;52.126;11.616;2023-06-26T12:34:15;4.28;;;3.78;;
18364;SDS011;9309;52.126;11.616;2023-06-26T12:36:44;4.03;;;3.60;;
18364;SDS011;9309;52.126;11.616;2023-06-26T12:39:12;6.28;;;4.30;;
18364;SDS011;9309;52.126;11.616;2023-06-26T12:41:46;3.95;;;3.65;;
18364;SDS011;9309;52.126;11.616;2023-06-26T12:44:18;5.10;;;4.60;;
18364;SDS011;9309;52.126;11.616;2023-06-26T12:46:46;4.78;;;4.38;;
18364;SDS011;9309;52.126;11.616;2023-06-26T12:49:14;7.50;;;4.15;;
18364;SDS011;9309;52.126;11.616;2023-06-26T12:51:40;4.82;;;4.03;;
18364;SDS011;9309;52.126;11.616;2023-06-26T12:54:07;4.40;;;3.95;;
18364;SDS011;9309;52.126;11.616;2023-06-26T12:56:34;9.43;;;4.45;;
18364;SDS011;9309;52.126;11.616;2023-06-26T12:59:01;7.38;;;3.58;;
18364;SDS011;9309;52.126;11.616;2023-06-26T13:01:29;4.03;;;3.72;;
18364;SDS011;9309;52.126;11.616;2023-06-26T13:03:55;3.55;;;3.25;;
18364;SDS011;9309;52.126;11.616;2023-06-26T13:06:22;4.20;;;3.55;;
18364;SDS011;9309;52.126;11.616;2023-06-26T13:08:49;5.90;;;4.60;;
18364;SDS011;9309;52.126;11.616;2023-06-26T13:11:16;5.05;;;4.15;;
18364;SDS011;9309;52.126;11.616;2023-06-26T13:13:43;6.90;;;4.95;;
18364;SDS011;9309;52.126;11.616;2023-06-26T13:16:09;4.90;;;4.25;;
18364;SDS011;9309;52.126;11.616;2023-06-26T13:18:37;7.65;;;4.80;;
18364;SDS011;9309;52.126;11.616;2023-06-26T13:21:04;8.52;;;5.13;;
18364;SDS011;9309;52.126;11.616;2023-06-26T13:23:30;12.18;;;5.47;;
18364;SDS011;9309;52.126;11.616;2023-06-26T13:25:57;8.15;;;5.03;;
18364;SDS011;9309;52.126;11.616;2023-06-26T13:28:24;6.93;;;4.53;;
18364;SDS011;9309;52.126;11.616;2023-06-26T13:30:51;4.30;;;3.85;;
18364;SDS011;9309;52.126;11.616;2023-06-26T13:33:17;3.33;;;3.03;;
18364;SDS011;9309;52.126;11.616;2023-06-26T13:35:45;3.20;;;3.00;;
18364;SDS011;9309;52.126;11.616;2023-06-26T13:38:12;3.70;;;3.30;;
18364;SDS011;9309;52.126;11.616;2023-06-26T13:40:39;4.22;;;3.03;;
18364;SDS011;9309;52.126;11.616;2023-06-26T13:43:06;2.83;;;2.60;;
18364;SDS011;9309;52.126;11.616;2023-06-26T13:45:33;3.15;;;2.83;;
18364;SDS011;9309;52.126;11.616;2023-06-26T13:47:59;2.80;;;2.60;;
18364;SDS011;9309;52.126;11.616;2023-06-26T13:50:26;2.95;;;2.72;;
18364;SDS011;9309;52.126;11.616;2023-06-26T13:52:54;5.63;;;3.15;;
18364;SDS011;9309;52.126;11.616;2023-06-26T13:55:20;7.50;;;2.53;;
18364;SDS011;9309;52.126;11.616;2023-06-26T13:57:48;3.45;;;2.83;;
18364;SDS011;9309;52.126;11.616;2023-06-26T14:00:15;3.22;;;2.90;;
18364;SDS011;9309;52.126;11.616;2023-06-26T14:02:45;4.65;;;3.30;;
18364;SDS011;9309;52.126;11.616;2023-06-26T14:05:11;4.15;;;2.90;;
18364;SDS011;9309;52.126;11.616;2023-06-26T14:07:38;3.13;;;2.90;;
18364;SDS011;9309;52.126;11.616;2023-06-26T14:10:07;3.20;;;2.90;;
18364;SDS011;9309;52.126;11.616;2023-06-26T14:12:34;3.10;;;2.95;;
18364;SDS011;9309;52.126;11.616;2023-06-26T14:15:00;3.88;;;3.40;;
18364;SDS011;9309;52.126;11.616;2023-06-26T14:17:28;2.85;;;2.65;;
18364;SDS011;9309;52.126;11.616;2023-06-26T14:19:55;4.43;;;3.00;;
18364;SDS011;9309;52.126;11.616;2023-06-26T14:22:21;13.85;;;3.42;;
18364;SDS011;9309;52.126;11.616;2023-06-26T14:24:48;3.85;;;2.97;;
18364;SDS011;9309;52.126;11.616;2023-06-26T14:27:17;3.42;;;3.22;;
18364;SDS011;9309;52.126;11.616;2023-06-26T14:29:43;4.38;;;3.50;;
18364;SDS011;9309;52.126;11.616;2023-06-26T14:32:10;3.05;;;2.55;;
18364;SDS011;9309;52.126;11.616;2023-06-26T14:34:37;3.30;;;3.00;;
18364;SDS011;9309;52.126;11.616;2023-06-26T14:37:05;4.38;;;3.38;;
18364;SDS011;9309;52.126;11.616;2023-06-26T14:39:32;3.05;;;2.72;;
18364;SDS011;9309;52.126;11.616;2023-06-26T14:41:58;4.82;;;3.55;;
18364;SDS011;9309;52.126;11.616;2023-06-26T14:44:26;3.58;;;3.35;;
18364;SDS011;9309;52.126;11.616;2023-06-26T14:46:53;5.15;;;3.60;;
18364;SDS011;9309;52.126;11.616;2023-06-26T14:49:20;6.10;;;5.50;;
18364;SDS011;9309;52.126;11.616;2023-06-26T14:51:46;5.65;;;3.88;;
18364;SDS011;9309;52.126;11.616;2023-06-26T14:54:13;4.22;;;3.60;;